Cody, WY (82414)

6:17 AM MST on December 06, 2016 (GMT -0700)
Valley View | | Change Station

Elev 5166 ft 44.51 °N, 109.10 °W | Updated 9 minutes ago

Clear
Clear
2.7 °F
Feels Like 3 °F
N
0.0
Wind Variable Wind from SSW
Gusts 2.0 mph

Today
High -- | Low -- °F
--% Chance of Precip.
Yesterday
High -- | Low -- °F
Precip. -- in
Pressure 30.22 in
Visibility 10.0 miles
Clouds Clear
Windchill 3 °F
Dew Point -3 °F
Humidity 78%
Rainfall 0.00 in
Snow Depth Not available.
7:38 AM 4:36 PM
Waxing Crescent, 41% visible
METAR KCOD 061256Z AUTO 17003KT 10SM CLR M18/M21 A2992 RMK AO2 SLP232 T11831206 FZRANO
Pressure 30.22 in
Visibility 10.0 miles
Clouds Clear
Windchill 3 °F
Dew Point -3 °F
Humidity 78%
Rainfall 0.00 in
Snow Depth Not available.
7:38 AM 4:36 PM
Waxing Crescent, 41% visible
METAR KCOD 061256Z AUTO 17003KT 10SM CLR M18/M21 A2992 RMK AO2 SLP232 T11831206 FZRANO

10-Day Weather Forecast

Almanac

Astronomy

Dec. 06, 2016 Rise Set
Actual Time
Civil Twilight
Nautical Twilight
Astronomical Twilight
Moon
Length of Visible Light
Length of Day
Tomorrow will be .
, % of the Moon is Illuminated

Today's Extremes

State Highs State Lows

Community

WunderPhotos

Upload Photos

1,955,938 photos uploaded!

WunderBlog® & News

Nearby

Air Quality

  Air Quality AQ Index Pollutant
Not available.

Snow Depth

Station Depth Elevation

Earthquake Activity

City Distance Mag. Time & Date
Minimum magnitude displayed is 2.5.

Coastal Water Temperatures

Place Temperature

Stations

Nearby Weather Stations

Station Location Temp. Windchill Dew Point Humidity Wind Precip. Elev Updated Type
                   

Watches & Warnings

There are currently no watches in effect.